LFLCLFLX

Guest
Details From LFLC - Clermont-Ferrand_Auvergne
To LFLX - Chateauroux Deols
Flight Number -
Tags generated
Created
Modified
Stats Distance 88 nm / 163 km
Max Altitude 7,200 ft / 2,195 m
Waypoints 3
Social Downloads 0
Likes 0
Share VATSIM

Download

Looking for another format? Having issues loading an existing format? Contact us
Advertisement - Login to hide

Notes

Basic altitude profile: - Ascent Rate: 2500ft/min - Ascent Speed: 250kts - Cruise Altitude: 35000ft - Cruise Speed: 420kts - Descent Rate: 1500ft/min - Descent Speed: 250kts Options: - Use NATs: no - Use PACOTS: no - Use low airways: yes - Use high airways: no

Route

LFLC GERVA LFLX

ID Type Via Altitude Latitude Longitude Leg Dist Tot Dist Heading (true) Name
O LFLC APT - 0 ft / 0 m 45.78671˚ 3.16997˚ - 0 nm - Clermont-Ferrand_Auvergne
GERVA FIX - 7,200 ft / 2,195 m 46.05764˚ 2.87431˚ 20 nm 20 nm 323° / 323° -
O LFLX APT - 0 ft / 0 m 46.86375˚ 1.73167˚ 67 nm 88 nm 316° / 315° Chateauroux Deols

Altitude Profile

Advertisement - Login to hide

LFLC

Details ICAO LFLC (CFE)
Name Clermont-Ferrand_Auvergne
Region France
Timezone Europe/Paris (UTC+1.0)
Stats Elevation 1,089 ft / 332 m (AMSL)
Location 45.786712° 3.169967°
Runways 1
Magnetic Variation 0.979° E

METAR

LFLC 121400Z AUTO VRB03KT 9999 FEW041 07/M02 Q1015 NOSIG

Decode

TAF

TAF LFLC 120800Z 1209/1309 VRB03KT 9999 FEW015 BKN030 BECMG 1215/1218 FEW040 BECMG 1300/1303 18012KT TEMPO 1303/1306 CAVOK BECMG 1306/1309 BKN050 BKN090

Decode

Departure Runways

ID Width Length Bearing (true) Bearing (mag) Surface Threshold Offset Overrun Length
08 148 ft / 45 m 9,878 ft / 3,011 m 81.95° 80.97° Asphalt 0 ft / 0 m 0 ft / 0 m
26 148 ft / 45 m 9,878 ft / 3,011 m 261.98° 261.00° Asphalt 476 ft / 145 m 0 ft / 0 m

LFLX

Details ICAO LFLX (CHR)
Name Chateauroux Deols
Region France
Timezone Europe/Paris (UTC+1.0)
Stats Elevation 529 ft / 161 m (AMSL)
Location 46.863750° 1.731667°
Runways 1
Magnetic Variation 0.525° E

METAR

LFLX 121400Z AUTO 24013KT CAVOK 06/00 Q1015

Decode

TAF

Not found

Destination Runways

ID Width Length Bearing (true) Bearing (mag) Surface Threshold Offset Overrun Length
04 148 ft / 45 m 11,473 ft / 3,497 m 32.92° 32.40° Concrete 0 ft / 0 m 0 ft / 0 m
22 148 ft / 45 m 11,473 ft / 3,497 m 212.94° 212.42° Concrete 0 ft / 0 m 0 ft / 0 m

Approach Navaids

Runway Type Ident Frequency Range Bearing (true) Bearing (mag) Slope Elevation
22 Localiser CX 110.30 MHz 18 nm / 33 km 213.11° 212.59° - 522 ft / 159 m (AMSL)
22 Glidescope CX 110.30 MHz 10 nm / 19 km 212.93° 212.41° 3.00° 522 ft / 159 m (AMSL)
22 DME CX 110.30 MHz 18 nm / 33 km - - - 577 ft / 176 m (AMSL)